createdAt,value
2019-03-20T00:00:42.362Z,102394.89
2019-03-20T00:03:13.232Z,102389.94
2019-03-20T00:05:45.167Z,102391.19
2019-03-20T00:08:16.007Z,102388.94
2019-03-20T00:10:46.520Z,102388.06
2019-03-20T00:13:17.401Z,102386.87
2019-03-20T00:15:48.810Z,102394.19
2019-03-20T00:18:19.558Z,102389.97
2019-03-20T00:20:50.242Z,102386.76
2019-03-20T00:23:21.083Z,102395.45
2019-03-20T00:25:52.398Z,102395.80
2019-03-20T00:28:23.017Z,102397.78
2019-03-20T00:30:53.399Z,102399.09
2019-03-20T00:33:24.167Z,102396.07
2019-03-20T00:35:54.621Z,102394.23
2019-03-20T00:38:25.246Z,102394.71
2019-03-20T00:40:56.511Z,102397.00
2019-03-20T00:43:27.141Z,102390.73
2019-03-20T00:45:57.654Z,102396.83
2019-03-20T00:48:28.896Z,102395.47
2019-03-20T00:51:00.430Z,102395.92
2019-03-20T00:53:30.831Z,102396.78
2019-03-20T00:56:01.262Z,102391.16
2019-03-20T00:58:32.163Z,102389.91
2019-03-20T01:01:02.526Z,102386.26
2019-03-20T01:03:33.329Z,102389.30
2019-03-20T01:06:03.829Z,102389.52
2019-03-20T01:08:34.196Z,102395.54
2019-03-20T01:11:04.680Z,102399.85
2019-03-20T01:13:35.126Z,102394.77
2019-03-20T01:16:08.578Z,102401.53
2019-03-20T01:18:39.183Z,102407.46
2019-03-20T01:21:10.788Z,102408.17
2019-03-20T01:23:41.368Z,102407.09
2019-03-20T01:26:11.752Z,102407.17
2019-03-20T01:28:42.635Z,102409.03
2019-03-20T01:31:13.038Z,102408.91
2019-03-20T01:33:43.450Z,102403.30
2019-03-20T01:36:14.167Z,102407.59
2019-03-20T01:38:45.022Z,102409.61
2019-03-20T01:41:15.467Z,102411.02
2019-03-20T01:43:45.858Z,102413.56
2019-03-20T01:46:16.376Z,102416.85
2019-03-20T01:48:50.648Z,102409.83
2019-03-20T01:51:21.881Z,102418.98
2019-03-20T01:53:52.447Z,102421.41
2019-03-20T01:56:24.376Z,102418.27
2019-03-20T01:58:54.720Z,102422.34
2019-03-20T02:01:25.205Z,102425.80
2019-03-20T02:03:55.782Z,102419.80
2019-03-20T02:06:26.613Z,102426.35
2019-03-20T02:08:57.448Z,102434.63
2019-03-20T02:11:27.943Z,102438.45
2019-03-20T02:13:58.378Z,102437.67
2019-03-20T02:16:29.022Z,102440.50
2019-03-20T02:19:00.487Z,102451.59
2019-03-20T02:21:31.051Z,102444.38
2019-03-20T02:24:02.005Z,102442.13
2019-03-20T02:26:32.435Z,102438.51
2019-03-20T02:29:02.938Z,102437.70
2019-03-20T02:31:33.456Z,102437.65
2019-03-20T02:34:04.016Z,102438.41
2019-03-20T02:36:34.396Z,102437.34
2019-03-20T02:39:06.729Z,102441.13
2019-03-20T02:41:37.165Z,102436.66
2019-03-20T02:44:07.571Z,102441.70
2019-03-20T02:46:38.081Z,102441.25
2019-03-20T02:49:08.486Z,102441.52
2019-03-20T02:51:39.062Z,102443.26
2019-03-20T02:54:09.776Z,102444.44
2019-03-20T02:56:40.260Z,102454.11
2019-03-20T02:59:10.699Z,102449.25
2019-03-20T03:01:41.106Z,102445.57
2019-03-20T03:04:11.607Z,102451.23
2019-03-20T03:06:42.145Z,102454.52
2019-03-20T03:09:12.769Z,102460.50
2019-03-20T03:11:43.454Z,102465.66
2019-03-20T03:14:13.989Z,102463.06
2019-03-20T03:16:44.575Z,102462.80
2019-03-20T03:19:15.319Z,102464.24
2019-03-20T03:21:45.718Z,102463.38
2019-03-20T03:24:16.370Z,102469.10
2019-03-20T03:26:47.082Z,102471.74
2019-03-20T03:29:17.550Z,102473.11
2019-03-20T03:31:48.373Z,102466.11
2019-03-20T03:34:19.055Z,102463.95
2019-03-20T03:36:49.775Z,102462.12
2019-03-20T03:39:20.577Z,102467.81
2019-03-20T03:41:51.461Z,102465.44
2019-03-20T03:44:22.225Z,102467.84
2019-03-20T03:46:52.916Z,102478.76
2019-03-20T03:49:23.408Z,102479.19
2019-03-20T03:51:53.884Z,102483.17
2019-03-20T03:54:24.341Z,102478.30
2019-03-20T03:56:54.895Z,102490.31
2019-03-20T03:59:25.337Z,102494.97
2019-03-20T04:01:56.105Z,102490.99
2019-03-20T04:04:26.738Z,102500.23
2019-03-20T04:06:57.341Z,102497.50
2019-03-20T04:09:27.897Z,102495.97
2019-03-20T04:11:58.434Z,102498.27
2019-03-20T04:14:28.826Z,102506.17
2019-03-20T04:16:59.251Z,102505.03
2019-03-20T04:19:29.632Z,102501.42
2019-03-20T04:22:00.056Z,102499.16
2019-03-20T04:24:30.437Z,102510.49
2019-03-20T04:27:00.771Z,102511.86
2019-03-20T04:29:31.795Z,102515.64
2019-03-20T04:32:02.221Z,102519.05
2019-03-20T04:34:33.034Z,102522.63
2019-03-20T04:37:03.817Z,102523.27
2019-03-20T04:39:34.200Z,102529.11
2019-03-20T04:42:04.748Z,102526.77
2019-03-20T04:44:35.487Z,102536.73
2019-03-20T04:47:07.219Z,102539.94
2019-03-20T04:49:37.759Z,102546.75
2019-03-20T04:52:09.123Z,102541.39
2019-03-20T04:54:39.758Z,102544.28
2019-03-20T04:57:10.332Z,102548.20
2019-03-20T04:59:40.912Z,102544.64
2019-03-20T05:02:11.630Z,102550.14
2019-03-20T05:04:42.539Z,102551.11
2019-03-20T05:07:12.948Z,102551.55
2019-03-20T05:09:43.691Z,102564.16
2019-03-20T05:12:14.173Z,102567.29
2019-03-20T05:14:44.681Z,102561.55
2019-03-20T05:17:15.275Z,102567.14
2019-03-20T05:19:45.642Z,102564.77
2019-03-20T05:22:16.138Z,102564.09
2019-03-20T05:24:46.812Z,102558.64
2019-03-20T05:27:17.263Z,102570.47
2019-03-20T05:29:48.136Z,102566.53
2019-03-20T05:32:19.746Z,102565.83
2019-03-20T05:34:50.395Z,102570.09
2019-03-20T05:37:21.279Z,102568.39
2019-03-20T05:39:51.689Z,102569.55
2019-03-20T05:42:22.177Z,102576.52
2019-03-20T05:44:53.152Z,102570.41
2019-03-20T05:47:24.278Z,102575.55
2019-03-20T05:49:56.167Z,102580.92
2019-03-20T05:52:26.651Z,102590.92
2019-03-20T05:54:57.418Z,102581.81
2019-03-20T05:57:28.089Z,102583.64
2019-03-20T05:59:58.624Z,102591.02
2019-03-20T06:02:30.520Z,102594.75
2019-03-20T06:05:01.097Z,102598.88
2019-03-20T06:07:31.859Z,102600.25
2019-03-20T06:10:02.298Z,102602.55
2019-03-20T06:12:32.978Z,102599.84
2019-03-20T06:15:03.690Z,102600.83
2019-03-20T06:17:34.330Z,102612.30
2019-03-20T06:20:07.908Z,102611.66
2019-03-20T06:22:38.261Z,102616.70
2019-03-20T06:25:10.607Z,102623.39
2019-03-20T06:27:41.275Z,102625.61
2019-03-20T06:30:16.992Z,102628.42
2019-03-20T06:32:47.776Z,102627.27
2019-03-20T06:35:18.444Z,102630.27
2019-03-20T06:37:49.194Z,102632.79
2019-03-20T06:40:19.777Z,102630.83
2019-03-20T06:42:50.545Z,102635.90
2019-03-20T06:45:22.040Z,102636.10
2019-03-20T06:47:52.493Z,102644.09
2019-03-20T06:50:23.598Z,102645.11
2019-03-20T06:52:54.209Z,102642.02
2019-03-20T06:55:26.147Z,102640.46
2019-03-20T06:57:56.806Z,102642.44
2019-03-20T07:00:42.805Z,102643.91
2019-03-20T07:03:32.066Z,102638.62
2019-03-20T07:06:17.713Z,102648.00
2019-03-20T07:08:54.332Z,102652.16
2019-03-20T07:11:23.898Z,102651.92
2019-03-20T07:13:54.942Z,102644.11
2019-03-20T07:16:27.825Z,102646.07
2019-03-20T07:18:59.460Z,102652.73
2019-03-20T07:21:30.125Z,102648.47
2019-03-20T07:24:01.368Z,102647.94
2019-03-20T07:26:32.913Z,102654.48
2019-03-20T07:29:03.726Z,102652.34
2019-03-20T07:31:34.174Z,102652.55
2019-03-20T07:34:05.082Z,102653.52
2019-03-20T07:36:36.036Z,102658.05
2019-03-20T07:39:09.198Z,102661.40
2019-03-20T07:41:41.498Z,102659.98
2019-03-20T07:44:12.041Z,102660.63
2019-03-20T07:46:42.680Z,102670.77
2019-03-20T07:49:13.693Z,102666.89
2019-03-20T07:51:44.588Z,102669.51
2019-03-20T07:54:15.232Z,102666.27
2019-03-20T07:56:46.853Z,102670.73
2019-03-20T07:59:20.292Z,102672.83
2019-03-20T08:01:51.508Z,102680.33
2019-03-20T08:04:22.207Z,102680.67
2019-03-20T08:06:52.822Z,102683.20
2019-03-20T08:09:25.587Z,102675.06
2019-03-20T08:11:56.128Z,102680.27
2019-03-20T08:14:26.522Z,102686.19
2019-03-20T08:16:57.199Z,102690.36
2019-03-20T08:19:28.066Z,102684.33
2019-03-20T08:21:58.592Z,102687.87
2019-03-20T08:24:31.360Z,102686.88
2019-03-20T08:27:02.023Z,102696.08
2019-03-20T08:29:34.211Z,102702.42
2019-03-20T08:32:05.128Z,102696.91
2019-03-20T08:34:37.388Z,102691.79
2019-03-20T08:37:08.481Z,102689.38
2019-03-20T08:39:39.208Z,102700.30
2019-03-20T08:42:09.724Z,102684.06
2019-03-20T08:44:40.491Z,102684.06
2019-03-20T08:47:11.199Z,102699.06
2019-03-20T08:49:41.810Z,102708.17
2019-03-20T08:52:12.851Z,102707.13
2019-03-20T08:54:43.634Z,102707.76
2019-03-20T08:57:14.242Z,102701.72
2019-03-20T08:59:44.709Z,102702.41
2019-03-20T09:02:15.144Z,102698.38
2019-03-20T09:04:47.557Z,102709.17
2019-03-20T09:07:17.998Z,102706.16
2019-03-20T09:09:50.796Z,102712.38
2019-03-20T09:12:21.600Z,102710.20
2019-03-20T09:14:53.939Z,102720.22
2019-03-20T09:17:25.580Z,102720.48
2019-03-20T09:19:57.757Z,102726.92
2019-03-20T09:22:28.456Z,102719.64
2019-03-20T09:24:58.823Z,102724.48
2019-03-20T09:27:29.234Z,102718.66
2019-03-20T09:29:59.781Z,102714.11
2019-03-20T09:32:30.671Z,102715.31
2019-03-20T09:35:01.406Z,102718.88
2019-03-20T09:37:32.975Z,102709.64
2019-03-20T09:40:04.741Z,102716.98
2019-03-20T09:42:35.390Z,102715.54
2019-03-20T09:45:09.197Z,102710.34
2019-03-20T09:47:39.809Z,102710.77
2019-03-20T09:50:12.519Z,102703.55
2019-03-20T09:52:43.288Z,102710.83
2019-03-20T09:55:17.277Z,102698.61
2019-03-20T09:57:47.669Z,102707.77
2019-03-20T10:00:30.823Z,102701.95
2019-03-20T10:03:01.794Z,102707.45
2019-03-20T10:05:32.223Z,102700.28
2019-03-20T10:08:03.189Z,102698.90
2019-03-20T10:10:33.602Z,102704.13
2019-03-20T10:13:04.734Z,102695.78
2019-03-20T10:15:35.359Z,102695.81
2019-03-20T10:18:07.631Z,102704.69
2019-03-20T10:20:38.440Z,102692.55
2019-03-20T10:23:08.986Z,102695.81
2019-03-20T10:25:44.649Z,102703.45
2019-03-20T10:28:12.969Z,102699.44
2019-03-20T10:30:43.561Z,102696.78
2019-03-20T10:33:16.524Z,102696.39
2019-03-20T10:35:50.537Z,102693.17
2019-03-20T10:38:18.665Z,102696.61
2019-03-20T10:40:49.172Z,102689.12
2019-03-20T10:43:19.633Z,102694.39
2019-03-20T10:45:51.420Z,102704.28
2019-03-20T10:48:22.343Z,102699.30
2019-03-20T10:50:53.251Z,102693.06
2019-03-20T10:53:24.045Z,102688.81
2019-03-20T10:55:58.147Z,102694.23
2019-03-20T10:58:28.871Z,102705.30
2019-03-20T11:00:59.352Z,102701.02
2019-03-20T11:03:30.582Z,102697.82
2019-03-20T11:06:00.979Z,102686.67
2019-03-20T11:08:31.511Z,102687.00
2019-03-20T11:11:02.086Z,102682.91
2019-03-20T11:13:32.917Z,102689.84
2019-03-20T11:16:04.631Z,102694.56
2019-03-20T11:18:35.157Z,102701.28
2019-03-20T11:21:06.020Z,102689.83
2019-03-20T11:23:36.922Z,102682.31
2019-03-20T11:26:07.665Z,102678.38
2019-03-20T11:28:38.371Z,102675.47
2019-03-20T11:31:10.069Z,102676.10
2019-03-20T11:33:41.035Z,102669.88
2019-03-20T11:36:11.547Z,102661.69
2019-03-20T11:38:42.072Z,102664.41
2019-03-20T11:41:13.539Z,102663.26
2019-03-20T11:43:44.220Z,102666.28
2019-03-20T11:46:15.040Z,102664.22
2019-03-20T11:48:45.578Z,102665.64
2019-03-20T11:51:16.515Z,102663.47
2019-03-20T11:53:47.275Z,102669.82
2019-03-20T11:56:18.871Z,102655.91
2019-03-20T11:58:49.286Z,102663.58
2019-03-20T12:01:19.959Z,102666.69
2019-03-20T12:03:51.544Z,102669.51
2019-03-20T12:06:23.111Z,102663.11
2019-03-20T12:08:56.321Z,102660.25
2019-03-20T12:11:26.925Z,102657.13
2019-03-20T12:14:01.468Z,102650.39
2019-03-20T12:16:36.846Z,102657.13
2019-03-20T12:19:07.346Z,102657.03
2019-03-20T12:21:39.068Z,102648.23
2019-03-20T12:24:09.403Z,102642.84
2019-03-20T12:26:40.085Z,102628.88
2019-03-20T12:29:10.855Z,102628.10
2019-03-20T12:31:42.408Z,102624.38
2019-03-20T12:34:13.080Z,102629.22
2019-03-20T12:36:44.560Z,102628.58
2019-03-20T12:39:15.117Z,102634.30
2019-03-20T12:41:45.720Z,102622.21
2019-03-20T12:44:16.566Z,102626.89
2019-03-20T12:46:47.323Z,102626.50
2019-03-20T12:49:18.679Z,102621.73
2019-03-20T12:51:49.483Z,102618.39
2019-03-20T12:54:21.518Z,102622.13
2019-03-20T12:56:52.004Z,102615.69
2019-03-20T12:59:24.178Z,102620.45
2019-03-20T13:01:56.920Z,102623.39
2019-03-20T13:04:27.665Z,102622.09
2019-03-20T13:06:58.139Z,102612.61
2019-03-20T13:09:29.050Z,102605.69
2019-03-20T13:12:00.533Z,102611.08
2019-03-20T13:14:31.084Z,102607.95
2019-03-20T13:17:01.775Z,102602.05
2019-03-20T13:19:32.530Z,102605.39
2019-03-20T13:22:03.205Z,102591.23
2019-03-20T13:24:34.008Z,102594.16
2019-03-20T13:27:04.614Z,102588.47
2019-03-20T13:29:35.307Z,102587.20
2019-03-20T13:32:05.945Z,102592.87
2019-03-20T13:34:36.667Z,102585.44
2019-03-20T13:37:07.521Z,102585.47
2019-03-20T13:39:38.584Z,102585.30
2019-03-20T13:42:09.062Z,102572.28
2019-03-20T13:44:41.330Z,102574.70
2019-03-20T13:47:11.860Z,102565.14
2019-03-20T13:49:42.402Z,102561.09
2019-03-20T13:52:13.129Z,102551.52
2019-03-20T13:54:44.753Z,102547.44
2019-03-20T13:57:15.504Z,102558.94
2019-03-20T13:59:46.054Z,102549.70
2019-03-20T14:02:20.019Z,102556.66
2019-03-20T14:04:51.259Z,102508.98
2019-03-20T14:07:21.967Z,102542.31
2019-03-20T14:09:52.748Z,102549.82
2019-03-20T14:12:23.615Z,102542.55
2019-03-20T14:14:54.399Z,102559.80
2019-03-20T14:17:24.903Z,102563.73
2019-03-20T14:19:55.465Z,102556.89
2019-03-20T14:22:26.411Z,102550.05
2019-03-20T14:24:57.021Z,102551.68
2019-03-20T14:27:28.705Z,102544.09
2019-03-20T14:30:00.836Z,102545.66
2019-03-20T14:32:32.109Z,102550.33
2019-03-20T14:35:03.319Z,102526.89
2019-03-20T14:37:33.786Z,102511.59
2019-03-20T14:40:16.273Z,102532.40
2019-03-20T14:42:48.681Z,102536.74
2019-03-20T14:45:19.739Z,102536.74
2019-03-20T14:47:51.147Z,102535.33
2019-03-20T14:50:30.107Z,102545.27
2019-03-20T14:53:02.246Z,102541.89
2019-03-20T14:55:33.061Z,102542.52
2019-03-20T14:58:03.912Z,102545.72
2019-03-20T15:00:37.285Z,102552.94
2019-03-20T15:03:08.312Z,102551.80
2019-03-20T15:05:38.819Z,102553.73
2019-03-20T15:08:09.887Z,102553.73
2019-03-20T15:10:46.239Z,102548.77
2019-03-20T15:13:17.321Z,102546.41
2019-03-20T15:15:57.945Z,102546.41
2019-03-20T15:18:28.628Z,102554.19
2019-03-20T15:20:59.315Z,102559.52
2019-03-20T15:23:31.678Z,102559.52
2019-03-20T15:26:02.379Z,102558.48
2019-03-20T15:28:33.052Z,102558.48
2019-03-20T15:31:03.614Z,102548.83
2019-03-20T15:33:34.200Z,102535.98
2019-03-20T15:36:04.849Z,102561.28
2019-03-20T15:38:37.012Z,102553.56
2019-03-20T15:41:09.282Z,102558.36
2019-03-20T15:43:40.854Z,102558.36
2019-03-20T15:46:11.754Z,102551.20
2019-03-20T15:48:44.316Z,102544.33
2019-03-20T15:51:15.836Z,102541.46
2019-03-20T15:53:46.882Z,102536.79
2019-03-20T15:56:18.021Z,102534.97
2019-03-20T15:58:48.879Z,102524.48
2019-03-20T16:01:19.479Z,102519.53
2019-03-20T16:03:50.252Z,102507.26
2019-03-20T16:06:20.781Z,102500.28
2019-03-20T16:08:51.525Z,102499.00
2019-03-20T16:11:23.298Z,102500.91
2019-03-20T16:13:54.632Z,102499.45
2019-03-20T16:16:26.582Z,102494.79
2019-03-20T16:18:57.246Z,102493.55
2019-03-20T16:21:28.168Z,102494.21
2019-03-20T16:23:59.142Z,102501.27
2019-03-20T16:26:32.697Z,102510.11
2019-03-20T16:29:04.081Z,102510.69
2019-03-20T16:31:35.038Z,102508.30
2019-03-20T16:34:06.091Z,102502.91
2019-03-20T16:36:37.049Z,102499.60
2019-03-20T16:39:08.593Z,102509.28
2019-03-20T16:41:42.376Z,102515.27
2019-03-20T16:44:13.670Z,102520.48
2019-03-20T16:46:44.803Z,102526.70
2019-03-20T16:49:15.562Z,102531.20
2019-03-20T16:51:46.631Z,102528.72
2019-03-20T16:54:17.360Z,102532.95
2019-03-20T16:56:49.331Z,102532.70
2019-03-20T16:59:20.327Z,102546.79
2019-03-20T17:01:52.879Z,102546.36
2019-03-20T17:04:25.493Z,102548.89
2019-03-20T17:06:56.170Z,102545.50
2019-03-20T17:09:26.619Z,102552.83
2019-03-20T17:11:57.025Z,102561.87
2019-03-20T17:14:27.637Z,102566.47
2019-03-20T17:16:58.333Z,102569.30
2019-03-20T17:19:30.067Z,102569.52
2019-03-20T17:22:00.851Z,102572.47
2019-03-20T17:24:31.354Z,102581.06
2019-03-20T17:27:02.186Z,102583.83
2019-03-20T17:29:32.792Z,102582.58
2019-03-20T17:32:03.657Z,102582.66
2019-03-20T17:34:35.629Z,102592.47
2019-03-20T17:37:08.155Z,102592.45
2019-03-20T17:39:38.887Z,102590.98
2019-03-20T17:42:09.562Z,102600.18
2019-03-20T17:44:40.511Z,102602.77
2019-03-20T17:47:12.360Z,102601.81
2019-03-20T17:49:43.299Z,102601.80
2019-03-20T17:52:14.179Z,102598.28
2019-03-20T17:54:47.120Z,102603.30
2019-03-20T17:57:17.878Z,102597.97
2019-03-20T17:59:48.781Z,102585.16
2019-03-20T18:02:24.193Z,102586.10
2019-03-20T18:04:53.650Z,102586.73
2019-03-20T18:07:24.512Z,102582.16
2019-03-20T18:09:56.463Z,102571.71
2019-03-20T18:12:27.161Z,102570.06
2019-03-20T18:14:57.895Z,102568.78
2019-03-20T18:17:29.455Z,102576.89
2019-03-20T18:20:00.514Z,102571.58
2019-03-20T18:22:31.824Z,102581.36
2019-03-20T18:25:02.699Z,102586.90
2019-03-20T18:27:35.411Z,102585.27
2019-03-20T18:30:18.631Z,102594.12
2019-03-20T18:32:49.398Z,102585.31
2019-03-20T18:35:19.734Z,102595.08
2019-03-20T18:37:50.380Z,102591.55
2019-03-20T18:40:22.991Z,102592.88
2019-03-20T18:42:53.374Z,102597.75
2019-03-20T18:45:25.597Z,102589.81
2019-03-20T18:47:57.433Z,102582.75
2019-03-20T18:50:28.134Z,102586.28
2019-03-20T18:52:59.773Z,102588.94
2019-03-20T18:55:30.726Z,102591.56
2019-03-20T18:58:02.430Z,102596.81
2019-03-20T19:00:36.084Z,102592.28
2019-03-20T19:03:22.066Z,102600.20
2019-03-20T19:06:00.027Z,102595.30
2019-03-20T19:08:30.646Z,102590.02
2019-03-20T19:11:01.451Z,102593.59
2019-03-20T19:13:32.617Z,102590.02
2019-03-20T19:16:03.381Z,102583.83
2019-03-20T19:18:35.208Z,102588.23
2019-03-20T19:21:05.764Z,102589.11
2019-03-20T19:23:37.219Z,102585.11
2019-03-20T19:26:08.319Z,102585.16
2019-03-20T19:28:39.406Z,102587.83
2019-03-20T19:31:10.044Z,102588.27
2019-03-20T19:33:41.167Z,102586.45
2019-03-20T19:36:12.571Z,102593.55
2019-03-20T19:38:43.053Z,102590.42
2019-03-20T19:41:14.317Z,102582.86
2019-03-20T19:43:45.055Z,102579.78
2019-03-20T19:46:16.078Z,102587.31
2019-03-20T19:48:46.614Z,102582.03
2019-03-20T19:51:19.269Z,102575.39
2019-03-20T19:53:53.284Z,102574.97
2019-03-20T19:56:24.909Z,102576.20
2019-03-20T19:58:57.121Z,102575.16
2019-03-20T20:01:29.350Z,102573.84
2019-03-20T20:03:59.970Z,102575.56
2019-03-20T20:06:30.805Z,102580.83
2019-03-20T20:09:01.508Z,102584.42
2019-03-20T20:11:33.761Z,102584.47
2019-03-20T20:14:04.559Z,102586.27
2019-03-20T20:16:35.314Z,102589.38
2019-03-20T20:19:07.634Z,102584.48
2019-03-20T20:21:39.234Z,102585.80
2019-03-20T20:24:12.254Z,102585.80
2019-03-20T20:26:43.130Z,102587.53
2019-03-20T20:29:14.244Z,102591.06
2019-03-20T20:31:46.495Z,102594.59
2019-03-20T20:34:17.108Z,102595.41
2019-03-20T20:36:49.247Z,102596.31
2019-03-20T20:39:19.711Z,102596.68
2019-03-20T20:41:50.537Z,102593.55
2019-03-20T20:44:22.552Z,102596.21
2019-03-20T20:46:53.507Z,102597.95
2019-03-20T20:49:24.677Z,102604.14
2019-03-20T20:51:56.030Z,102612.13
2019-03-20T20:54:28.744Z,102620.98
2019-03-20T20:57:01.167Z,102620.11
2019-03-20T20:59:31.950Z,102619.23
2019-03-20T21:02:02.910Z,102624.55
2019-03-20T21:04:33.562Z,102632.08
2019-03-20T21:07:05.659Z,102639.61
2019-03-20T21:09:36.804Z,102647.14
2019-03-20T21:12:07.788Z,102639.61
2019-03-20T21:14:38.799Z,102641.40
2019-03-20T21:17:12.911Z,102632.55
2019-03-20T21:19:43.867Z,102626.30
2019-03-20T21:22:28.879Z,102629.42
2019-03-20T21:25:00.625Z,102638.28
2019-03-20T21:27:56.671Z,102644.02
2019-03-20T21:30:45.785Z,102640.94
2019-03-20T21:33:28.905Z,102638.73
2019-03-20T21:36:37.570Z,102631.62
2019-03-20T21:39:08.403Z,102630.70
2019-03-20T21:41:59.119Z,102633.83
2019-03-20T21:44:48.600Z,102632.89
2019-03-20T21:47:32.875Z,102640.88
2019-03-20T21:50:23.040Z,102638.22
2019-03-20T21:52:53.749Z,102627.97
2019-03-20T21:55:46.416Z,102634.11
2019-03-20T21:58:26.297Z,102633.64
2019-03-20T22:01:29.862Z,102626.56
2019-03-20T22:04:00.930Z,102637.64
2019-03-20T22:06:57.907Z,102640.75
2019-03-20T22:09:34.773Z,102651.41
2019-03-20T22:12:17.531Z,102650.95
2019-03-20T22:14:51.400Z,102639.02
2019-03-20T22:17:31.788Z,102628.83
2019-03-20T22:20:07.596Z,102620.39
2019-03-20T22:23:00.172Z,102621.72
2019-03-20T22:25:41.113Z,102624.37
2019-03-20T22:28:32.053Z,102618.17
2019-03-20T22:31:03.103Z,102625.71
2019-03-20T22:34:11.967Z,102621.30
2019-03-20T22:36:44.285Z,102613.33
2019-03-20T22:39:34.628Z,102610.66
2019-03-20T22:42:08.516Z,102609.80
2019-03-20T22:44:42.539Z,102606.72
2019-03-20T22:47:36.042Z,102604.94
2019-03-20T22:50:16.067Z,102607.19
2019-03-20T22:53:05.162Z,102610.27
2019-03-20T22:55:43.036Z,102609.41
2019-03-20T22:58:36.390Z,102605.86
2019-03-20T23:01:07.519Z,102611.19
2019-03-20T23:03:41.133Z,102611.20
2019-03-20T23:06:12.118Z,102610.73
2019-03-20T23:08:42.744Z,102602.28
2019-03-20T23:11:13.673Z,102601.81
2019-03-20T23:13:44.104Z,102596.08
2019-03-20T23:16:17.539Z,102600.48
2019-03-20T23:18:48.413Z,102606.67
2019-03-20T23:21:19.351Z,102603.98
2019-03-20T23:23:49.986Z,102604.88
2019-03-20T23:26:20.721Z,102601.74
2019-03-20T23:28:51.507Z,102590.62
2019-03-20T23:31:22.200Z,102591.48
2019-03-20T23:33:52.559Z,102592.41
2019-03-20T23:36:23.531Z,102595.06
2019-03-20T23:38:54.373Z,102598.60
2019-03-20T23:41:26.696Z,102600.34
2019-03-20T23:43:57.598Z,102601.21
2019-03-20T23:46:28.413Z,102612.79
2019-03-20T23:49:08.185Z,102610.14
2019-03-20T23:51:39.038Z,102604.80
2019-03-20T23:54:10.095Z,102604.34
2019-03-20T23:56:42.305Z,102603.02
2019-03-20T23:59:14.430Z,102602.55
